Time;durP1;ratioP1;P1;durP2;ratioP2;P2;SDS_P1;SDS_P2;PMS_P1;PMS_P2;Temp;Humidity;BMP_temperature;BMP_pressure;BME280_temperature;BME280_humidity;BME280_pressure;Samples;Min_cycle;Max_cycle;Signal;HPM_P1;HPM_P2
2022/10/02 00:00:49;;;;;;;19.38;4.13;;;;;;;;;;4985264;28;20089;-67
2022/10/02 00:03:20;;;;;;;16.70;3.20;;;;;;;;;;4984475;28;20505;-66
2022/10/02 00:05:48;;;;;;;22.92;3.15;;;;;;;;;;4985036;28;20050;-66
2022/10/02 00:08:18;;;;;;;16.10;3.55;;;;;;;;;;4987294;28;20058;-66
2022/10/02 00:10:48;;;;;;;14.48;3.28;;;;;;;;;;4986295;28;20516;-66
2022/10/02 00:13:21;;;;;;;17.38;3.25;;;;;;;;;;4985443;28;20121;-66
2022/10/02 00:15:47;;;;;;;16.30;2.75;;;;;;;;;;4986947;28;20446;-66
2022/10/02 00:18:15;;;;;;;20.02;2.85;;;;;;;;;;4984827;28;20687;-66
2022/10/02 00:20:55;;;;;;;17.67;2.72;;;;;;;;;;4988149;28;20046;-66
2022/10/02 00:23:30;;;;;;;20.40;3.92;;;;;;;;;;4984650;28;20389;-67
2022/10/02 00:26:01;;;;;;;13.68;2.90;;;;;;;;;;4984488;28;20410;-66
2022/10/02 00:28:30;;;;;;;15.85;3.08;;;;;;;;;;4984348;28;20038;-66
2022/10/02 00:30:58;;;;;;;15.50;2.75;;;;;;;;;;4986416;28;20128;-66
2022/10/02 00:33:30;;;;;;;16.75;2.92;;;;;;;;;;4986192;28;20488;-67
2022/10/02 00:36:04;;;;;;;18.58;2.95;;;;;;;;;;4985192;28;20054;-66
2022/10/02 00:38:30;;;;;;;;;;;;;;;;;;4983879;28;20519;-66
2022/10/02 00:41:09;;;;;;;17.75;3.25;;;;;;;;;;4984535;28;19922;-67
2022/10/02 00:43:40;;;;;;;25.63;4.60;;;;;;;;;;4985424;28;20241;-66
2022/10/02 00:46:06;;;;;;;15.10;2.70;;;;;;;;;;4985154;28;20042;-67
2022/10/02 00:48:32;;;;;;;13.75;2.88;;;;;;;;;;4985968;28;20104;-67
2022/10/02 00:51:07;;;;;;;13.18;2.78;;;;;;;;;;4990528;28;20195;-66
2022/10/02 00:53:44;;;;;;;19.23;3.08;;;;;;;;;;4989477;28;20118;-66
2022/10/02 00:56:18;;;;;;;18.60;2.75;;;;;;;;;;4990284;28;20038;-66
2022/10/02 00:59:03;;;;;;;14.30;3.15;;;;;;;;;;4990769;28;20046;-67
2022/10/02 01:01:36;;;;;;;18.40;3.47;;;;;;;;;;4986364;28;20117;-66
2022/10/02 01:04:05;;;;;;;15.32;2.70;;;;;;;;;;4990479;28;20031;-66
2022/10/02 01:06:32;;;;;;;10.88;2.63;;;;;;;;;;4988525;28;20093;-67
2022/10/02 01:09:00;;;;;;;14.65;2.67;;;;;;;;;;4989756;28;20525;-67
2022/10/02 01:11:29;;;;;;;12.90;3.22;;;;;;;;;;4987457;28;20390;-66
2022/10/02 01:13:55;;;;;;;13.82;3.10;;;;;;;;;;4987318;28;20050;-66
2022/10/02 01:16:22;;;;;;;13.15;3.53;;;;;;;;;;4990302;28;20113;-66
2022/10/02 01:18:48;;;;;;;13.30;2.78;;;;;;;;;;4990205;28;20065;-66
2022/10/02 01:21:25;;;;;;;10.90;2.85;;;;;;;;;;4987277;28;20065;-66
2022/10/02 01:24:02;;;;;;;19.42;4.47;;;;;;;;;;4989230;28;20176;-66
2022/10/02 01:26:29;;;;;;;15.50;2.80;;;;;;;;;;4989672;28;20038;-67
2022/10/02 01:28:55;;;;;;;16.40;2.78;;;;;;;;;;4986230;28;20085;-67
2022/10/02 01:31:23;;;;;;;16.55;2.63;;;;;;;;;;4986792;28;20046;-66
2022/10/02 01:33:50;;;;;;;20.08;3.05;;;;;;;;;;4989396;28;20046;-67
2022/10/02 01:36:16;;;;;;;19.80;2.90;;;;;;;;;;4988416;28;20392;-66
2022/10/02 01:38:42;;;;;;;18.08;2.97;;;;;;;;;;4987820;28;20046;-66
2022/10/02 01:41:10;;;;;;;21.75;3.20;;;;;;;;;;4988041;28;20683;-67
2022/10/02 01:43:39;;;;;;;16.08;4.30;;;;;;;;;;4989530;28;20125;-67
2022/10/02 01:46:15;;;;;;;15.13;2.63;;;;;;;;;;4988897;28;20120;-66
2022/10/02 01:48:45;;;;;;;16.50;3.30;;;;;;;;;;4989106;28;20039;-67
2022/10/02 01:51:22;;;;;;;22.23;3.75;;;;;;;;;;4988968;28;20125;-66
2022/10/02 01:53:52;;;;;;;17.73;2.83;;;;;;;;;;4988305;28;20053;-66
2022/10/02 01:56:22;;;;;;;21.10;2.80;;;;;;;;;;4986450;28;20375;-66
2022/10/02 01:59:04;;;;;;;17.88;2.90;;;;;;;;;;4989514;28;20043;-66
2022/10/02 02:01:37;;;;;;;19.00;3.35;;;;;;;;;;4986578;28;20050;-66
2022/10/02 02:04:03;;;;;;;20.93;3.03;;;;;;;;;;4987048;28;20479;-66
2022/10/02 02:06:37;;;;;;;14.93;3.25;;;;;;;;;;4988601;28;20387;-66
2022/10/02 02:09:08;;;;;;;17.15;2.53;;;;;;;;;;4988574;28;20100;-66
2022/10/02 02:11:35;;;;;;;17.25;3.10;;;;;;;;;;4985863;28;20381;-67
2022/10/02 02:14:06;;;;;;;20.85;2.85;;;;;;;;;;4988793;28;20039;-66
2022/10/02 02:16:33;;;;;;;28.17;3.63;;;;;;;;;;4987336;28;20061;-67
2022/10/02 02:19:02;;;;;;;29.50;3.90;;;;;;;;;;4988299;28;20132;-66
2022/10/02 02:21:32;;;;;;;25.60;4.35;;;;;;;;;;4986817;28;20042;-66
2022/10/02 02:24:01;;;;;;;27.25;4.50;;;;;;;;;;4987842;28;20077;-67
2022/10/02 02:26:27;;;;;;;24.23;3.47;;;;;;;;;;4989304;28;20125;-67
2022/10/02 02:28:56;;;;;;;27.75;5.05;;;;;;;;;;4988029;28;20591;-67
2022/10/02 02:31:24;;;;;;;21.60;3.47;;;;;;;;;;4987469;28;20517;-67
2022/10/02 02:33:55;;;;;;;23.75;4.25;;;;;;;;;;4987784;28;20132;-66
2022/10/02 02:36:23;;;;;;;23.38;3.78;;;;;;;;;;4988134;28;20038;-66
2022/10/02 02:38:52;;;;;;;28.52;3.83;;;;;;;;;;4987846;28;20193;-67
2022/10/02 02:41:23;;;;;;;24.27;3.78;;;;;;;;;;4984778;28;20074;-66
2022/10/02 02:43:55;;;;;;;20.40;3.13;;;;;;;;;;4988099;28;20037;-66
2022/10/02 02:46:24;;;;;;;25.42;3.30;;;;;;;;;;4987798;28;20045;-67
2022/10/02 02:48:54;;;;;;;16.83;2.92;;;;;;;;;;4987848;28;20049;-66
2022/10/02 02:51:23;;;;;;;21.95;3.78;;;;;;;;;;4987057;28;20042;-67
2022/10/02 02:53:53;;;;;;;18.83;3.65;;;;;;;;;;4987372;28;20209;-67
2022/10/02 02:56:20;;;;;;;48.65;4.03;;;;;;;;;;4985765;28;20042;-67
2022/10/02 02:58:48;;;;;;;14.23;3.08;;;;;;;;;;4986370;28;20093;-66
2022/10/02 03:01:14;;;;;;;27.00;3.63;;;;;;;;;;4987567;28;20046;-66
2022/10/02 03:03:40;;;;;;;25.42;3.58;;;;;;;;;;4987436;28;20390;-67
2022/10/02 03:06:25;;;;;;;20.40;4.03;;;;;;;;;;4987280;28;20053;-66
2022/10/02 03:08:52;;;;;;;20.10;2.92;;;;;;;;;;4970372;28;20051;-67
2022/10/02 03:11:18;;;;;;;26.80;3.35;;;;;;;;;;4946480;28;20051;-66
2022/10/02 03:13:50;;;;;;;15.48;3.20;;;;;;;;;;4963335;28;20035;-66
2022/10/02 03:16:20;;;;;;;17.13;3.10;;;;;;;;;;4951624;28;20050;-67
2022/10/02 03:19:12;;;;;;;18.60;3.50;;;;;;;;;;4964491;28;20437;-66
2022/10/02 03:21:45;;;;;;;23.58;3.88;;;;;;;;;;4948826;28;20054;-66
2022/10/02 03:24:17;;;;;;;19.90;2.70;;;;;;;;;;4967169;28;20035;-66
2022/10/02 03:26:52;;;;;;;17.10;3.80;;;;;;;;;;4949271;28;20050;-67
2022/10/02 03:29:20;;;;;;;21.73;3.00;;;;;;;;;;4949949;28;20375;-67
2022/10/02 03:31:47;;;;;;;23.90;3.25;;;;;;;;;;4968072;28;20052;-67
2022/10/02 03:34:13;;;;;;;23.83;3.35;;;;;;;;;;4949574;28;21785;-67
2022/10/02 03:36:39;;;;;;;18.15;3.45;;;;;;;;;;4967097;28;20047;-67
2022/10/02 03:39:06;;;;;;;27.23;3.25;;;;;;;;;;4967524;28;20042;-66
2022/10/02 03:41:32;;;;;;;18.02;3.53;;;;;;;;;;4950789;28;20189;-67
2022/10/02 03:43:58;;;;;;;23.98;3.67;;;;;;;;;;4967931;28;20133;-67
2022/10/02 03:46:24;;;;;;;28.25;4.45;;;;;;;;;;4967423;28;20121;-67
2022/10/02 03:48:50;;;;;;;29.23;3.30;;;;;;;;;;4966764;28;20041;-66
2022/10/02 03:51:16;;;;;;;22.42;3.67;;;;;;;;;;4965199;28;20057;-66
2022/10/02 03:53:42;;;;;;;25.30;4.43;;;;;;;;;;4967073;28;20047;-67
2022/10/02 03:56:14;;;;;;;30.48;3.97;;;;;;;;;;4949410;28;20050;-67
2022/10/02 03:58:43;;;;;;;28.73;4.60;;;;;;;;;;4949412;28;20047;-67
2022/10/02 04:01:09;;;;;;;22.48;3.20;;;;;;;;;;4967628;28;20410;-66
2022/10/02 04:03:37;;;;;;;29.63;3.53;;;;;;;;;;4966718;28;20059;-67
2022/10/02 04:06:09;;;;;;;31.73;4.10;;;;;;;;;;4950068;28;20419;-67
2022/10/02 04:08:36;;;;;;;30.27;4.20;;;;;;;;;;4967075;28;20042;-66
2022/10/02 04:11:06;;;;;;;24.55;3.53;;;;;;;;;;4965840;28;20082;-66
2022/10/02 04:13:37;;;;;;;23.25;3.72;;;;;;;;;;4967819;28;20122;-66
2022/10/02 04:16:06;;;;;;;37.65;4.00;;;;;;;;;;4963999;28;20126;-67
2022/10/02 04:18:44;;;;;;;28.80;4.60;;;;;;;;;;4967656;28;20047;-66
2022/10/02 04:21:11;;;;;;;28.67;3.83;;;;;;;;;;4968180;28;20129;-67
2022/10/02 04:23:41;;;;;;;21.73;3.95;;;;;;;;;;4964518;28;20512;-67
2022/10/02 04:26:13;;;;;;;25.00;3.50;;;;;;;;;;4966622;28;20107;-67
2022/10/02 04:28:42;;;;;;;25.50;3.20;;;;;;;;;;4966669;28;20057;-67
2022/10/02 04:31:11;;;;;;;26.55;4.75;;;;;;;;;;4965887;28;20117;-67
2022/10/02 04:33:37;;;;;;;32.90;3.95;;;;;;;;;;4968138;28;20435;-67
2022/10/02 04:36:12;;;;;;;29.05;3.78;;;;;;;;;;4967069;28;20105;-67
2022/10/02 04:38:46;;;;;;;25.00;3.90;;;;;;;;;;4967001;28;20549;-66
2022/10/02 04:41:27;;;;;;;19.92;2.97;;;;;;;;;;4948860;28;20051;-66
2022/10/02 04:44:02;;;;;;;31.48;5.80;;;;;;;;;;4934495;28;20049;-66
2022/10/02 04:46:37;;;;;;;22.23;3.92;;;;;;;;;;4967565;28;20053;-66
2022/10/02 04:49:23;;;;;;;35.55;4.38;;;;;;;;;;4946803;28;20043;-66
2022/10/02 04:51:56;;;;;;;29.98;3.90;;;;;;;;;;4964140;28;20030;-66
2022/10/02 04:54:35;;;;;;;26.65;3.75;;;;;;;;;;4966340;28;20081;-67
2022/10/02 04:57:13;;;;;;;24.27;4.28;;;;;;;;;;4966164;28;20093;-67
2022/10/02 04:59:48;;;;;;;28.00;4.28;;;;;;;;;;4965561;28;20046;-67
2022/10/02 05:02:23;;;;;;;29.20;3.83;;;;;;;;;;4948859;28;20122;-66
2022/10/02 05:04:58;;;;;;;27.92;4.22;;;;;;;;;;4966385;28;20391;-67
2022/10/02 05:07:32;;;;;;;33.85;4.65;;;;;;;;;;4958008;28;20073;-67
2022/10/02 05:10:00;;;;;;;;;;;;;;;;;;4985288;28;20114;-67
2022/10/02 05:12:30;;;;;;;24.48;3.40;;;;;;;;;;4985014;28;19980;-66
2022/10/02 05:15:04;;;;;;;24.90;3.72;;;;;;;;;;4984786;28;20047;-66
2022/10/02 05:17:34;;;;;;;26.92;3.63;;;;;;;;;;4984182;28;20069;-66
2022/10/02 05:20:06;;;;;;;21.27;3.05;;;;;;;;;;4985730;28;20053;-67
2022/10/02 05:22:38;;;;;;;27.88;3.00;;;;;;;;;;4985236;28;20046;-67
2022/10/02 05:25:15;;;;;;;23.15;2.75;;;;;;;;;;4985787;28;20053;-67
2022/10/02 05:27:47;;;;;;;17.48;3.10;;;;;;;;;;4983315;28;20523;-67
2022/10/02 05:30:13;;;;;;;23.25;3.10;;;;;;;;;;4984148;28;20118;-67
2022/10/02 05:32:40;;;;;;;11.63;2.13;;;;;;;;;;4984969;28;20046;-66
2022/10/02 05:35:22;;;;;;;22.23;3.35;;;;;;;;;;4983943;28;20069;-66
2022/10/02 05:37:58;;;;;;;22.15;2.80;;;;;;;;;;4989037;28;20050;-66
2022/10/02 05:40:30;;;;;;;19.58;3.10;;;;;;;;;;4988462;28;20521;-66
2022/10/02 05:42:57;;;;;;;22.30;3.00;;;;;;;;;;4986633;28;20054;-66
2022/10/02 05:45:30;;;;;;;13.90;2.38;;;;;;;;;;4988188;28;20042;-66
2022/10/02 05:48:02;;;;;;;19.48;2.63;;;;;;;;;;4988171;28;20046;-66
2022/10/02 05:50:31;;;;;;;21.55;2.53;;;;;;;;;;4988852;28;20069;-67
2022/10/02 05:52:59;;;;;;;16.73;2.40;;;;;;;;;;4989637;28;20124;-66
2022/10/02 05:55:28;;;;;;;26.60;3.80;;;;;;;;;;4986734;28;20054;-67
2022/10/02 05:57:59;;;;;;;16.67;2.42;;;;;;;;;;4987468;28;20054;-67
2022/10/02 06:00:35;;;;;;;17.42;2.72;;;;;;;;;;4986731;28;20049;-67
2022/10/02 06:03:24;;;;;;;18.92;2.55;;;;;;;;;;4984533;28;20371;-67
2022/10/02 06:05:54;;;;;;;17.27;3.05;;;;;;;;;;4985515;28;20497;-66
2022/10/02 06:08:22;;;;;;;21.42;3.15;;;;;;;;;;4985311;28;20054;-66
2022/10/02 06:10:50;;;;;;;24.83;3.33;;;;;;;;;;4967277;28;21522;-66
2022/10/02 06:13:22;;;;;;;26.33;3.60;;;;;;;;;;4989424;28;20034;-66
2022/10/02 06:15:51;;;;;;;20.40;3.65;;;;;;;;;;4954466;28;20121;-67
2022/10/02 06:18:20;;;;;;;25.80;3.47;;;;;;;;;;4971238;28;20114;-66
2022/10/02 06:20:50;;;;;;;22.15;3.92;;;;;;;;;;4969602;28;20050;-66
2022/10/02 06:23:20;;;;;;;24.42;3.50;;;;;;;;;;4987138;28;20121;-67
2022/10/02 06:25:55;;;;;;;32.75;4.35;;;;;;;;;;4987813;28;20075;-66
2022/10/02 06:28:27;;;;;;;33.28;4.75;;;;;;;;;;4971388;28;20134;-66
2022/10/02 06:31:02;;;;;;;28.58;3.58;;;;;;;;;;4969507;28;20050;-66
2022/10/02 06:33:30;;;;;;;28.35;3.78;;;;;;;;;;4971675;28;20508;-66
2022/10/02 06:36:03;;;;;;;28.38;4.03;;;;;;;;;;4987913;28;20092;-66
2022/10/02 06:38:38;;;;;;;22.75;4.38;;;;;;;;;;4987350;28;20049;-66
2022/10/02 06:41:14;;;;;;;24.30;4.47;;;;;;;;;;4987572;28;20046;-67
2022/10/02 06:43:44;;;;;;;27.92;4.65;;;;;;;;;;4985931;28;20043;-67
2022/10/02 06:46:14;;;;;;;24.50;4.65;;;;;;;;;;4987064;28;20078;-67
2022/10/02 06:48:48;;;;;;;21.95;3.42;;;;;;;;;;4971235;28;20447;-67
2022/10/02 06:51:26;;;;;;;23.73;4.05;;;;;;;;;;4953607;28;20054;-66
2022/10/02 06:53:57;;;;;;;31.40;3.83;;;;;;;;;;4986744;28;20121;-67
2022/10/02 06:56:24;;;;;;;24.08;3.90;;;;;;;;;;4987202;28;20451;-66
2022/10/02 06:58:59;;;;;;;18.10;3.33;;;;;;;;;;4987167;28;20035;-67
2022/10/02 07:01:34;;;;;;;18.00;3.30;;;;;;;;;;4985807;28;20042;-66
2022/10/02 07:04:12;;;;;;;19.35;3.47;;;;;;;;;;4987124;28;20046;-67
2022/10/02 07:06:47;;;;;;;13.15;2.78;;;;;;;;;;4969317;28;20057;-67
2022/10/02 07:09:15;;;;;;;18.05;3.15;;;;;;;;;;4967216;28;20066;-67
2022/10/02 07:12:02;;;;;;;23.15;3.17;;;;;;;;;;4967557;28;20050;-67
2022/10/02 07:14:33;;;;;;;19.02;3.40;;;;;;;;;;4950681;28;20054;-67
2022/10/02 07:16:59;;;;;;;14.98;2.95;;;;;;;;;;4968568;28;20047;-67
2022/10/02 07:19:32;;;;;;;15.73;2.70;;;;;;;;;;4950376;28;20047;-67
2022/10/02 07:22:03;;;;;;;16.92;3.15;;;;;;;;;;4951638;28;20374;-66
2022/10/02 07:24:39;;;;;;;16.30;2.67;;;;;;;;;;4966572;28;20031;-67
2022/10/02 07:27:07;;;;;;;11.50;2.38;;;;;;;;;;4965582;28;20042;-66
2022/10/02 07:29:46;;;;;;;9.75;2.55;;;;;;;;;;4948901;28;20529;-67
2022/10/02 07:32:13;;;;;;;13.40;3.00;;;;;;;;;;4951911;28;20321;-67
2022/10/02 07:34:52;;;;;;;13.50;2.60;;;;;;;;;;4949707;28;20662;-66
2022/10/02 07:37:27;;;;;;;19.83;3.72;;;;;;;;;;4968889;28;20049;-67
2022/10/02 07:40:12;;;;;;;17.67;3.17;;;;;;;;;;4968289;28;20439;-67
2022/10/02 07:42:48;;;;;;;18.90;3.35;;;;;;;;;;4965027;28;20479;-67
2022/10/02 07:45:16;;;;;;;27.38;4.65;;;;;;;;;;4966795;28;20479;-67
2022/10/02 07:47:49;;;;;;;18.75;4.30;;;;;;;;;;4945507;28;20039;-67
2022/10/02 07:50:22;;;;;;;24.63;4.18;;;;;;;;;;4965595;28;20034;-67
2022/10/02 07:52:48;;;;;;;17.75;3.47;;;;;;;;;;4967903;28;20047;-67
2022/10/02 07:55:19;;;;;;;23.75;4.43;;;;;;;;;;4949224;28;20050;-67
2022/10/02 07:57:51;;;;;;;20.20;4.35;;;;;;;;;;4967443;28;20489;-66
2022/10/02 08:00:19;;;;;;;19.48;3.58;;;;;;;;;;4967296;28;20050;-67
2022/10/02 08:02:49;;;;;;;22.33;4.05;;;;;;;;;;4964004;28;20045;-67
2022/10/02 08:05:17;;;;;;;22.42;4.03;;;;;;;;;;4933962;28;20046;-66
2022/10/02 08:07:45;;;;;;;25.08;3.83;;;;;;;;;;4974051;28;20050;-67
2022/10/02 08:10:15;;;;;;;22.80;3.00;;;;;;;;;;4985890;28;20104;-66
2022/10/02 08:12:47;;;;;;;25.48;3.67;;;;;;;;;;4986191;28;20059;-66
2022/10/02 08:15:14;;;;;;;16.83;3.53;;;;;;;;;;4985554;28;20038;-66
2022/10/02 08:17:48;;;;;;;17.55;3.80;;;;;;;;;;4984585;28;20042;-67
2022/10/02 08:20:27;;;;;;;19.55;3.22;;;;;;;;;;4983745;28;20492;-66
2022/10/02 08:23:20;;;;;;;23.33;3.85;;;;;;;;;;4967764;28;20057;-66
2022/10/02 08:25:54;;;;;;;22.27;4.47;;;;;;;;;;4969176;28;20050;-66
2022/10/02 08:28:20;;;;;;;;;;;;;;;;;;4987083;28;20548;-66
2022/10/02 08:30:46;;;;;;;20.30;3.95;;;;;;;;;;4968039;28;19956;-67
2022/10/02 08:33:16;;;;;;;22.70;4.78;;;;;;;;;;4967547;28;20154;-66
2022/10/02 08:36:00;;;;;;;22.73;4.32;;;;;;;;;;4985340;28;20042;-66
2022/10/02 08:38:40;;;;;;;18.60;4.60;;;;;;;;;;4985869;28;20042;-66
2022/10/02 08:41:21;;;;;;;27.35;5.35;;;;;;;;;;4969241;28;20061;-67
2022/10/02 08:44:06;;;;;;;19.13;4.55;;;;;;;;;;4986167;28;20122;-67
2022/10/02 08:46:55;;;;;;;17.23;4.18;;;;;;;;;;4985948;28;20047;-67
2022/10/02 08:49:21;;;;;;;26.50;4.07;;;;;;;;;;4986876;28;20050;-66
2022/10/02 08:51:47;;;;;;;22.95;4.28;;;;;;;;;;4985248;28;20756;-66
2022/10/02 08:54:35;;;;;;;32.28;3.78;;;;;;;;;;4968453;28;20129;-66
2022/10/02 08:57:12;;;;;;;21.13;4.50;;;;;;;;;;4968484;28;20100;-66
2022/10/02 08:59:56;;;;;;;29.17;5.63;;;;;;;;;;4986825;28;20121;-66
2022/10/02 09:02:26;;;;;;;27.10;4.10;;;;;;;;;;4966443;28;20486;-67
2022/10/02 09:05:18;;;;;;;29.60;4.60;;;;;;;;;;4983217;28;20042;-66
2022/10/02 09:07:46;;;;;;;23.02;3.85;;;;;;;;;;4974196;28;20133;-66
2022/10/02 09:10:30;;;;;;;32.55;4.88;;;;;;;;;;4932363;28;20042;-66
2022/10/02 09:13:15;;;;;;;33.70;4.65;;;;;;;;;;4951944;28;20112;-66
2022/10/02 09:15:46;;;;;;;26.65;3.97;;;;;;;;;;4952851;28;20102;-67
2022/10/02 09:18:16;;;;;;;20.65;3.80;;;;;;;;;;4967997;28;20545;-67
2022/10/02 09:20:50;;;;;;;32.40;6.13;;;;;;;;;;4971235;28;20081;-66
2022/10/02 09:23:44;;;;;;;18.45;3.97;;;;;;;;;;4970627;28;20068;-67
2022/10/02 09:26:18;;;;;;;25.87;4.40;;;;;;;;;;4967995;28;20154;-67
2022/10/02 09:29:03;;;;;;;21.40;3.85;;;;;;;;;;4966444;28;20055;-67
2022/10/02 09:31:39;;;;;;;25.35;4.13;;;;;;;;;;4948849;28;20070;-67
2022/10/02 09:34:10;;;;;;;24.25;3.80;;;;;;;;;;4969764;28;20050;-67
2022/10/02 09:36:56;;;;;;;22.55;4.00;;;;;;;;;;4969867;28;20277;-66
2022/10/02 09:39:31;;;;;;;22.95;3.80;;;;;;;;;;4967350;28;20082;-66
2022/10/02 09:41:59;;;;;;;17.55;3.20;;;;;;;;;;4969794;28;20046;-66
2022/10/02 09:44:27;;;;;;;19.58;3.78;;;;;;;;;;4969644;28;20179;-66
2022/10/02 09:47:06;;;;;;;15.80;2.75;;;;;;;;;;4964787;28;20043;-67
2022/10/02 09:49:49;;;;;;;28.40;4.00;;;;;;;;;;4967180;28;20150;-67
2022/10/02 09:52:28;;;;;;;21.85;4.15;;;;;;;;;;4970383;28;20150;-67
2022/10/02 09:55:06;;;;;;;19.00;4.50;;;;;;;;;;4966447;28;20043;-67
2022/10/02 09:57:40;;;;;;;22.67;3.80;;;;;;;;;;4935831;28;20057;-66
2022/10/02 10:00:07;;;;;;;20.42;4.00;;;;;;;;;;4951702;28;20050;-67
2022/10/02 10:02:33;;;;;;;19.35;4.15;;;;;;;;;;4968121;28;20525;-66
2022/10/02 10:05:12;;;;;;;20.50;3.85;;;;;;;;;;4969725;28;20082;-67
2022/10/02 10:08:02;;;;;;;23.73;3.55;;;;;;;;;;4965088;28;20058;-67
2022/10/02 10:10:40;;;;;;;17.33;3.65;;;;;;;;;;4985415;28;20038;-66
2022/10/02 10:13:06;;;;;;;25.52;3.25;;;;;;;;;;4986755;28;20386;-67
2022/10/02 10:15:46;;;;;;;18.92;3.75;;;;;;;;;;4986113;28;20046;-67
2022/10/02 10:18:13;;;;;;;19.08;3.38;;;;;;;;;;4985645;28;20121;-67
2022/10/02 10:20:59;;;;;;;16.02;3.15;;;;;;;;;;4988389;28;20446;-67
2022/10/02 10:23:36;;;;;;;16.85;3.35;;;;;;;;;;4985191;28;20043;-66
2022/10/02 10:26:13;;;;;;;24.08;4.28;;;;;;;;;;4988212;28;20188;-66
2022/10/02 10:28:48;;;;;;;18.40;3.45;;;;;;;;;;4986798;28;20501;-67
2022/10/02 10:31:33;;;;;;;19.65;3.60;;;;;;;;;;4988175;28;20358;-66
2022/10/02 10:34:01;;;;;;;15.52;3.17;;;;;;;;;;4988152;28;20059;-67
2022/10/02 10:39:29;;;;;;;16.23;3.17;;;;;;;;;;4987059;28;20535;-67
2022/10/02 10:42:12;;;;;;;20.20;3.88;;;;;;;;;;4987610;28;20046;-66
2022/10/02 10:44:54;;;;;;;24.77;4.25;;;;;;;;;;4987354;28;20066;-67
2022/10/02 10:47:20;;;;;;;20.33;3.28;;;;;;;;;;4984776;28;20073;-67
2022/10/02 10:50:01;;;;;;;15.75;3.35;;;;;;;;;;4988404;28;20070;-67
2022/10/02 10:52:45;;;;;;;19.10;3.13;;;;;;;;;;4988908;28;20042;-67
2022/10/02 10:55:18;;;;;;;22.42;4.18;;;;;;;;;;4986757;28;20042;-67
2022/10/02 10:57:58;;;;;;;16.00;3.40;;;;;;;;;;4987233;28;20042;-67
2022/10/02 11:00:26;;;;;;;20.67;3.03;;;;;;;;;;4968990;28;20046;-67
2022/10/02 11:02:53;;;;;;;18.77;3.35;;;;;;;;;;4983887;28;20469;-67
2022/10/02 11:05:38;;;;;;;16.95;3.42;;;;;;;;;;4985728;28;20074;-67
2022/10/02 11:08:24;;;;;;;19.08;3.63;;;;;;;;;;4984654;28;20057;-67
2022/10/02 11:11:01;;;;;;;13.93;2.95;;;;;;;;;;4981964;28;20057;-67
2022/10/02 11:13:35;;;;;;;21.08;2.90;;;;;;;;;;4987739;28;20149;-67
2022/10/02 11:16:12;;;;;;;18.23;3.72;;;;;;;;;;4986666;28;20035;-67
2022/10/02 11:18:47;;;;;;;11.40;2.55;;;;;;;;;;4986693;28;20049;-67
2022/10/02 11:21:14;;;;;;;16.33;2.80;;;;;;;;;;4987288;28;20042;-67
2022/10/02 11:23:49;;;;;;;11.57;2.40;;;;;;;;;;4985063;28;20475;-67
2022/10/02 11:26:21;;;;;;;9.98;2.22;;;;;;;;;;4984712;28;20129;-67
2022/10/02 11:28:58;;;;;;;16.10;2.90;;;;;;;;;;4985758;28;20069;-67
2022/10/02 11:31:30;;;;;;;11.43;2.55;;;;;;;;;;4987268;28;20038;-67
2022/10/02 11:34:18;;;;;;;14.00;3.27;;;;;;;;;;4983406;28;20085;-67
2022/10/02 11:36:51;;;;;;;11.18;2.33;;;;;;;;;;4984683;28;20046;-67
2022/10/02 11:39:30;;;;;;;21.73;3.47;;;;;;;;;;4999188;28;20072;-67
2022/10/02 11:42:14;;;;;;;19.13;3.08;;;;;;;;;;4984066;28;20046;-67
2022/10/02 11:44:44;;;;;;;17.02;3.10;;;;;;;;;;4985253;28;20046;-67
2022/10/02 11:47:18;;;;;;;13.52;2.97;;;;;;;;;;4985378;28;20034;-67
2022/10/02 11:50:00;;;;;;;12.63;2.40;;;;;;;;;;4987011;28;20062;-67
2022/10/02 11:52:40;;;;;;;10.30;2.58;;;;;;;;;;4986548;28;20062;-67
2022/10/02 11:55:06;;;;;;;13.43;3.38;;;;;;;;;;4982521;28;20090;-67
2022/10/02 11:57:40;;;;;;;10.50;2.42;;;;;;;;;;4986037;28;20054;-67
2022/10/02 12:00:14;;;;;;;11.27;2.25;;;;;;;;;;4984277;28;20141;-67
2022/10/02 12:02:44;;;;;;;10.60;3.13;;;;;;;;;;4983759;28;20386;-67
2022/10/02 12:05:20;;;;;;;13.25;3.03;;;;;;;;;;4984779;28;20125;-67
2022/10/02 12:08:03;;;;;;;14.68;3.13;;;;;;;;;;4984826;28;20386;-67
2022/10/02 12:10:40;;;;;;;14.73;2.83;;;;;;;;;;4982414;28;20132;-67
2022/10/02 12:13:14;;;;;;;15.50;2.90;;;;;;;;;;4984309;28;20828;-67
2022/10/02 12:15:46;;;;;;;15.20;3.00;;;;;;;;;;4983801;28;20042;-67
2022/10/02 12:18:35;;;;;;;18.08;3.20;;;;;;;;;;4984636;28;20046;-67
2022/10/02 12:29:27;;;;;;;13.38;3.33;;;;;;;;;;4995961;28;20145;-67
2022/10/02 12:31:58;;;;;;;17.70;3.95;;;;;;;;;;4985477;28;20172;-67
2022/10/02 12:34:33;;;;;;;12.98;3.03;;;;;;;;;;4986268;28;20042;-67
2022/10/02 12:37:07;;;;;;;17.90;3.42;;;;;;;;;;4982786;28;20046;-67
2022/10/02 12:39:42;;;;;;;14.02;2.60;;;;;;;;;;4986373;28;20050;-67
2022/10/02 12:42:16;;;;;;;9.57;2.70;;;;;;;;;;4968285;28;20046;-67
2022/10/02 12:44:46;;;;;;;16.58;3.10;;;;;;;;;;4985689;28;20153;-67
2022/10/02 12:47:19;;;;;;;13.15;2.53;;;;;;;;;;4988205;28;20038;-67
2022/10/02 12:50:04;;;;;;;13.15;2.55;;;;;;;;;;4988979;28;20150;-67
2022/10/02 12:52:50;;;;;;;13.75;3.13;;;;;;;;;;4989095;28;20057;-67
2022/10/02 12:55:35;;;;;;;16.65;3.08;;;;;;;;;;4982291;28;20498;-66
2022/10/02 12:58:08;;;;;;;15.25;2.88;;;;;;;;;;4981959;28;20042;-66
2022/10/02 13:01:05;;;;;;;21.00;3.72;;;;;;;;;;4985222;28;20050;-67
2022/10/02 13:03:54;;;;;;;15.85;3.08;;;;;;;;;;4986784;28;20042;-67
2022/10/02 13:06:33;;;;;;;14.73;3.03;;;;;;;;;;4985028;28;20080;-66
2022/10/02 13:09:11;;;;;;;15.15;2.70;;;;;;;;;;4987045;28;20502;-67
2022/10/02 13:11:46;;;;;;;21.73;2.97;;;;;;;;;;4984816;28;21347;-67
2022/10/02 13:14:40;;;;;;;17.08;3.28;;;;;;;;;;4978355;28;20050;-67
2022/10/02 13:17:09;;;;;;;15.50;3.33;;;;;;;;;;4983239;28;20053;-67
2022/10/02 13:19:49;;;;;;;16.90;3.25;;;;;;;;;;4971495;28;20056;-67
2022/10/02 13:22:22;;;;;;;21.08;3.70;;;;;;;;;;4986745;28;20046;-67
2022/10/02 13:25:00;;;;;;;17.25;3.38;;;;;;;;;;4987683;28;20045;-67
2022/10/02 13:27:36;;;;;;;19.05;2.80;;;;;;;;;;4985651;28;20172;-67
2022/10/02 13:30:16;;;;;;;14.70;2.92;;;;;;;;;;4984252;28;20096;-67
2022/10/02 13:32:51;;;;;;;15.27;2.80;;;;;;;;;;4980238;28;20723;-66
2022/10/02 13:35:29;;;;;;;14.82;3.72;;;;;;;;;;4979479;28;20049;-66
2022/10/02 13:38:15;;;;;;;13.20;3.42;;;;;;;;;;4982779;28;20495;-66
2022/10/02 13:41:02;;;;;;;18.85;2.88;;;;;;;;;;4986959;28;20038;-66
2022/10/02 13:43:44;;;;;;;16.80;3.05;;;;;;;;;;4986165;28;20051;-66
2022/10/02 13:46:17;;;;;;;13.75;2.55;;;;;;;;;;4983979;28;20521;-66
2022/10/02 13:48:53;;;;;;;17.63;3.90;;;;;;;;;;4985140;28;20046;-66
2022/10/02 13:51:25;;;;;;;12.38;2.85;;;;;;;;;;4987278;28;20054;-66
2022/10/02 13:53:58;;;;;;;15.48;3.17;;;;;;;;;;4985844;28;20089;-66
2022/10/02 13:56:31;;;;;;;17.58;2.88;;;;;;;;;;4984825;28;20061;-66
2022/10/02 13:59:10;;;;;;;15.75;2.65;;;;;;;;;;4983704;28;20092;-66
2022/10/02 14:01:45;;;;;;;20.60;2.88;;;;;;;;;;4984589;28;21734;-66
2022/10/02 14:04:21;;;;;;;16.27;3.45;;;;;;;;;;4985368;28;20093;-66
2022/10/02 14:06:54;;;;;;;23.85;3.25;;;;;;;;;;4982474;28;20129;-66
2022/10/02 14:09:26;;;;;;;22.63;3.63;;;;;;;;;;4948228;28;20435;-66
2022/10/02 14:11:55;;;;;;;17.70;3.28;;;;;;;;;;4948503;28;20039;-66
2022/10/02 14:14:30;;;;;;;21.70;2.95;;;;;;;;;;4962416;28;20581;-66
2022/10/02 14:16:56;;;;;;;16.98;2.35;;;;;;;;;;4966919;28;20051;-66
2022/10/02 14:19:30;;;;;;;14.68;3.05;;;;;;;;;;4965117;28;20046;-66
2022/10/02 14:22:04;;;;;;;16.00;4.38;;;;;;;;;;4945060;28;20058;-66
2022/10/02 14:27:40;;;;;;;14.75;3.10;;;;;;;;;;4947621;28;20046;-66
2022/10/02 14:30:06;;;;;;;16.20;2.83;;;;;;;;;;4968451;28;20054;-66
2022/10/02 14:32:40;;;;;;;14.52;3.10;;;;;;;;;;4964102;28;20457;-66
2022/10/02 14:35:22;;;;;;;16.45;2.67;;;;;;;;;;4963767;28;20062;-66
2022/10/02 14:38:11;;;;;;;24.92;3.40;;;;;;;;;;4964652;28;20047;-66
2022/10/02 14:40:43;;;;;;;18.08;3.83;;;;;;;;;;4965299;28;20055;-66
2022/10/02 14:43:12;;;;;;;15.10;3.17;;;;;;;;;;4966669;28;20173;-66
2022/10/02 14:45:57;;;;;;;19.70;3.50;;;;;;;;;;4964209;28;20047;-64
2022/10/02 14:48:36;;;;;;;18.88;2.95;;;;;;;;;;4962807;28;20043;-66
2022/10/02 14:51:13;;;;;;;16.30;3.50;;;;;;;;;;4965561;28;20422;-66
2022/10/02 14:53:44;;;;;;;25.40;3.15;;;;;;;;;;4949847;28;20047;-66
2022/10/02 14:56:21;;;;;;;17.48;3.30;;;;;;;;;;4964334;28;20129;-66
2022/10/02 14:58:48;;;;;;;18.35;3.20;;;;;;;;;;4964673;28;20043;-66
2022/10/02 15:01:20;;;;;;;19.65;3.45;;;;;;;;;;4947505;28;20047;-65
2022/10/02 15:03:50;;;;;;;18.60;3.40;;;;;;;;;;4945157;28;20046;-66
2022/10/02 15:06:22;;;;;;;22.50;4.50;;;;;;;;;;4964873;28;20046;-66
2022/10/02 15:08:53;;;;;;;14.80;2.95;;;;;;;;;;4981506;28;21200;-66
2022/10/02 15:11:26;;;;;;;25.65;3.78;;;;;;;;;;4966113;28;20054;-66
2022/10/02 15:13:57;;;;;;;19.05;3.33;;;;;;;;;;4965193;28;20093;-66
2022/10/02 15:19:30;;;;;;;21.13;4.32;;;;;;;;;;4968436;28;20445;-66
2022/10/02 15:22:00;;;;;;;18.92;3.03;;;;;;;;;;4966716;28;20050;-66
2022/10/02 15:24:30;;;;;;;20.50;4.00;;;;;;;;;;4969633;28;20050;-66